createdAt,value
2022-12-05T00:00:15.112Z,22.10
2022-12-05T00:01:13.464Z,21.29
2022-12-05T00:02:31.684Z,20.89
2022-12-05T00:03:13.111Z,21.70
2022-12-05T00:04:13.970Z,19.79
2022-12-05T00:05:14.262Z,18.89
2022-12-05T00:06:12.538Z,21.39
2022-12-05T00:07:13.101Z,20.39
2022-12-05T00:08:13.752Z,19.20
2022-12-05T00:09:13.513Z,19.89
2022-12-05T00:10:12.736Z,20.10
2022-12-05T00:11:13.361Z,20.70
2022-12-05T00:12:12.658Z,19.89
2022-12-05T00:13:12.782Z,19.39
2022-12-05T00:14:13.431Z,20.70
2022-12-05T00:15:13.232Z,18.39
2022-12-05T00:16:35.992Z,18.29
2022-12-05T00:17:13.358Z,19.20
2022-12-05T00:18:13.209Z,20.79
2022-12-05T00:19:13.015Z,19.20
2022-12-05T00:20:14.087Z,17.20
2022-12-05T00:21:12.937Z,18.29
2022-12-05T00:22:12.927Z,18.79
2022-12-05T00:23:13.208Z,18.10
2022-12-05T00:24:12.760Z,19.60
2022-12-05T00:25:13.793Z,17.29
2022-12-05T00:26:12.861Z,18.79
2022-12-05T00:27:13.387Z,19.10
2022-12-05T00:28:12.139Z,20.10
2022-12-05T00:29:13.396Z,19.20
2022-12-05T00:30:14.158Z,18.10
2022-12-05T00:31:13.653Z,19.70
2022-12-05T00:32:13.226Z,18.20
2022-12-05T00:33:12.557Z,18
2022-12-05T00:34:13.074Z,17.39
2022-12-05T00:35:13.085Z,16.89
2022-12-05T00:36:13.217Z,17.20
2022-12-05T00:37:12.856Z,17.60
2022-12-05T00:38:13.273Z,16.20
2022-12-05T00:39:14.117Z,16.70
2022-12-05T00:40:13.980Z,18.79
2022-12-05T00:41:13.482Z,17.70
2022-12-05T00:42:12.762Z,18.29
2022-12-05T00:43:13.377Z,16.89
2022-12-05T00:44:13.342Z,17.70
2022-12-05T00:45:13.803Z,19
2022-12-05T00:46:13.625Z,18.39
2022-12-05T00:47:13.400Z,17.10
2022-12-05T00:48:12.944Z,18.39
2022-12-05T00:49:13.207Z,17.79
2022-12-05T00:50:13.034Z,19.5
2022-12-05T00:51:12.852Z,15.39
2022-12-05T00:52:13.167Z,17.70
2022-12-05T00:53:13.765Z,16.29
2022-12-05T00:54:13.370Z,15.39
2022-12-05T00:55:13.317Z,16.5
2022-12-05T00:56:13.428Z,15.30
2022-12-05T00:57:12.997Z,16.20
2022-12-05T00:58:13.180Z,16.10
2022-12-05T00:59:13.667Z,16.20
2022-12-05T01:00:14.221Z,16.29
2022-12-05T01:01:14.927Z,16.70
2022-12-05T01:02:13.894Z,16
2022-12-05T01:03:13.742Z,17.79
2022-12-05T01:04:13.799Z,15.60
2022-12-05T01:05:13.449Z,16.20
2022-12-05T01:06:13.692Z,16.39
2022-12-05T01:07:13.812Z,14.89
2022-12-05T01:08:13.025Z,16.39
2022-12-05T01:09:13.451Z,16.60
2022-12-05T01:10:14.187Z,14.60
2022-12-05T01:11:13.363Z,15.10
2022-12-05T01:12:12.743Z,15
2022-12-05T01:13:13.087Z,15.80
2022-12-05T01:14:13.578Z,14.5
2022-12-05T01:15:13.815Z,14.69
2022-12-05T01:16:12.939Z,15
2022-12-05T01:17:14.011Z,14.30
2022-12-05T01:18:13.743Z,16.29
2022-12-05T01:19:13.268Z,14
2022-12-05T01:20:14.216Z,14.69
2022-12-05T01:21:12.524Z,14
2022-12-05T01:22:13.117Z,14.39
2022-12-05T01:23:13.775Z,14.30
2022-12-05T01:24:13.412Z,14
2022-12-05T01:25:14.023Z,13.19
2022-12-05T01:26:13.831Z,14
2022-12-05T01:27:13.088Z,14.10
2022-12-05T01:29:12.585Z,14
2022-12-05T01:30:13.675Z,14.30
2022-12-05T01:31:13.046Z,15.39
2022-12-05T01:32:13.891Z,16.10
2022-12-05T01:33:14.150Z,14.19
2022-12-05T01:34:13.851Z,13.69
2022-12-05T01:35:13.493Z,14.30
2022-12-05T01:36:12.510Z,14.60
2022-12-05T01:37:13.229Z,14.19
2022-12-05T01:38:12.536Z,15.30
2022-12-05T01:39:13.582Z,13.10
2022-12-05T01:40:13.173Z,13.60
2022-12-05T01:41:12.628Z,14.69
2022-12-05T01:42:13.662Z,14.39
2022-12-05T01:43:13.053Z,14.10
2022-12-05T01:44:12.503Z,14
2022-12-05T01:45:13.829Z,14.89
2022-12-05T01:46:13.340Z,13.80
2022-12-05T01:47:13.191Z,13.19
2022-12-05T01:48:13.134Z,13.39
2022-12-05T01:49:13.715Z,13.10
2022-12-05T01:50:13.668Z,13.80
2022-12-05T01:51:18.332Z,14
2022-12-05T01:53:13.218Z,13.89
2022-12-05T01:54:13.474Z,12.89
2022-12-05T01:55:18.088Z,13.80
2022-12-05T01:56:12.875Z,14.69
2022-12-05T01:57:18.506Z,13.39
2022-12-05T01:58:13.171Z,13.5
2022-12-05T01:59:13.360Z,13.39
2022-12-05T02:00:14.990Z,14
2022-12-05T02:01:17.985Z,13.5
2022-12-05T02:02:13.462Z,14
2022-12-05T02:04:13.356Z,12.69
2022-12-05T02:05:21.874Z,14.19
2022-12-05T02:06:13.184Z,14.69
2022-12-05T02:07:12.740Z,14
2022-12-05T02:08:13.164Z,14.89
2022-12-05T02:09:27.115Z,13.39
2022-12-05T02:10:12.473Z,14
2022-12-05T02:12:13.544Z,15.19
2022-12-05T02:13:12.714Z,14.69
2022-12-05T02:14:14.036Z,14.19
2022-12-05T02:15:12.738Z,14
2022-12-05T02:16:13.570Z,15.10
2022-12-05T02:17:12.686Z,14.89
2022-12-05T02:18:12.692Z,15.69
2022-12-05T02:19:26.423Z,15.39
2022-12-05T02:20:13.550Z,15.80
2022-12-05T02:21:12.496Z,14.19
2022-12-05T02:22:12.508Z,14.89
2022-12-05T02:23:13.355Z,15.39
2022-12-05T02:24:12.868Z,14.89
2022-12-05T02:25:12.676Z,16.29
2022-12-05T02:26:13.203Z,15.30
2022-12-05T02:27:12.398Z,15
2022-12-05T02:28:13.128Z,14.60
2022-12-05T02:29:14.029Z,14.10
2022-12-05T02:30:14.502Z,14.19
2022-12-05T02:32:13.252Z,14.39
2022-12-05T02:33:12.817Z,13.89
2022-12-05T02:34:13.663Z,15
2022-12-05T02:35:13.690Z,14.19
2022-12-05T02:36:12.872Z,15.39
2022-12-05T02:38:13.444Z,15
2022-12-05T02:39:13.513Z,14.39
2022-12-05T02:40:13.580Z,15.69
2022-12-05T02:41:35.678Z,15.19
2022-12-05T02:42:12.945Z,15.30
2022-12-05T02:43:12.760Z,15
2022-12-05T02:44:13.146Z,14
2022-12-05T02:45:36.398Z,15.10
2022-12-05T02:46:14.518Z,14.5
2022-12-05T02:47:13.946Z,15.60
2022-12-05T02:48:13.464Z,14
2022-12-05T02:49:13.088Z,13.10
2022-12-05T02:50:13.959Z,14.89
2022-12-05T02:51:13.710Z,14.10
2022-12-05T02:52:13.754Z,14.30
2022-12-05T02:53:13.381Z,13.89
2022-12-05T02:54:13.155Z,13.10
2022-12-05T02:55:13.854Z,14.5
2022-12-05T02:56:13.179Z,15
2022-12-05T02:57:13.427Z,13.89
2022-12-05T02:58:12.944Z,14.89
2022-12-05T02:59:18.468Z,13.10
2022-12-05T03:02:13.026Z,13.89
2022-12-05T03:03:13.145Z,12.89
2022-12-05T03:04:14.733Z,13.10
2022-12-05T03:05:14.395Z,12.89
2022-12-05T03:06:13.310Z,13.60
2022-12-05T03:07:13.973Z,13.89
2022-12-05T03:08:14.210Z,14.30
2022-12-05T03:09:14.876Z,13.69
2022-12-05T03:10:14.400Z,13.89
2022-12-05T03:11:14.406Z,13.39
2022-12-05T03:12:14.420Z,14.39
2022-12-05T03:13:14.521Z,13.30
2022-12-05T03:14:14.425Z,14.39
2022-12-05T03:15:14.591Z,13.89
2022-12-05T03:16:13.266Z,14.39
2022-12-05T03:17:13.609Z,14.5
2022-12-05T03:18:14.349Z,12.60
2022-12-05T03:19:13.577Z,14.60
2022-12-05T03:20:14.596Z,13.5
2022-12-05T03:21:14.589Z,13.30
2022-12-05T03:22:14.126Z,14
2022-12-05T03:23:14.264Z,13
2022-12-05T03:24:13.956Z,13.60
2022-12-05T03:25:14.534Z,13
2022-12-05T03:26:14.216Z,13.69
2022-12-05T03:27:14.237Z,12.60
2022-12-05T03:28:14.358Z,13.19
2022-12-05T03:29:14.592Z,12.5
2022-12-05T03:30:14.817Z,14.5
2022-12-05T03:31:13.921Z,13.69
2022-12-05T03:32:13.497Z,13.39
2022-12-05T03:33:14.901Z,14.19
2022-12-05T03:34:14.644Z,13
2022-12-05T03:35:14.921Z,13.89
2022-12-05T03:36:13.045Z,12.69
2022-12-05T03:37:13.165Z,13.69
2022-12-05T03:38:13.450Z,13.10
2022-12-05T03:39:13.401Z,12.89
2022-12-05T03:40:13.023Z,12.80
2022-12-05T03:41:13.791Z,13.10
2022-12-05T03:42:14.817Z,12.80
2022-12-05T03:43:14.222Z,12.89
2022-12-05T03:44:14.619Z,12.69
2022-12-05T03:45:14.098Z,12.39
2022-12-05T03:46:13.624Z,13.10
2022-12-05T03:47:14.959Z,12.39
2022-12-05T03:48:14.382Z,12
2022-12-05T03:49:14.694Z,13.10
2022-12-05T03:51:13.656Z,12.69
2022-12-05T03:52:14.117Z,11.89
2022-12-05T03:54:13.633Z,12.30
2022-12-05T03:55:14.513Z,11.39
2022-12-05T03:56:14.081Z,12.39
2022-12-05T03:57:13.504Z,11.69
2022-12-05T03:58:13.362Z,12.39
2022-12-05T03:59:13.211Z,12.5
2022-12-05T04:00:15.567Z,12
2022-12-05T04:01:14.514Z,11.60
2022-12-05T04:02:13.477Z,12.60
2022-12-05T04:03:14.638Z,11.39
2022-12-05T04:04:14.317Z,11.80
2022-12-05T04:05:13.795Z,12.19
2022-12-05T04:06:14.225Z,11
2022-12-05T04:07:13.771Z,11.19
2022-12-05T04:08:13.835Z,10.5
2022-12-05T04:09:17.305Z,10.60
2022-12-05T04:10:14.495Z,11.30
2022-12-05T04:11:13.738Z,11
2022-12-05T04:12:13.988Z,11.10
2022-12-05T04:13:13.568Z,11.30
2022-12-05T04:14:14.058Z,10.39
2022-12-05T04:15:14.380Z,10.30
2022-12-05T04:16:18.540Z,10.69
2022-12-05T04:17:13.376Z,10.80
2022-12-05T04:18:19.131Z,10.69
2022-12-05T04:19:13.414Z,9.899
2022-12-05T04:20:18.448Z,9.5
2022-12-05T04:21:13.969Z,9.699
2022-12-05T04:22:14.916Z,10.69
2022-12-05T04:23:13.601Z,10.30
2022-12-05T04:24:14.776Z,10.19
2022-12-05T04:26:18.428Z,10.30
2022-12-05T04:28:19.589Z,10.19
2022-12-05T04:29:14.592Z,10.89
2022-12-05T04:30:19.484Z,10.80
2022-12-05T04:31:13.892Z,10.30
2022-12-05T04:32:22.683Z,9.899
2022-12-05T04:34:14.338Z,10.39
2022-12-05T04:35:13.867Z,10.5
2022-12-05T04:36:14.089Z,10.39
2022-12-05T04:39:17.776Z,10.60
2022-12-05T04:40:14.122Z,10.10
2022-12-05T04:41:13.596Z,9.600
2022-12-05T04:42:28.421Z,9.699
2022-12-05T04:43:13.614Z,10.30
2022-12-05T04:44:28.199Z,8.800
2022-12-05T04:45:14.000Z,9.899
2022-12-05T04:46:28.214Z,9.5
2022-12-05T04:47:13.691Z,9.199
2022-12-05T04:48:14.371Z,10.30
2022-12-05T04:49:14.416Z,10.10
2022-12-05T04:50:15.187Z,9.100
2022-12-05T04:51:14.180Z,9.699
2022-12-05T04:52:14.377Z,9.5
2022-12-05T04:53:13.870Z,9.199
2022-12-05T04:54:33.162Z,9.399
2022-12-05T04:55:14.041Z,9.800
2022-12-05T04:56:13.419Z,9.399
2022-12-05T04:57:14.097Z,8.899
2022-12-05T04:58:13.753Z,9.800
2022-12-05T05:00:33.895Z,9
2022-12-05T05:01:13.362Z,9.199
2022-12-05T05:02:15.344Z,9
2022-12-05T05:03:13.266Z,8.800
2022-12-05T05:04:14.539Z,9.800
2022-12-05T05:05:14.469Z,9.199
2022-12-05T05:06:13.643Z,8.800
2022-12-05T05:07:14.616Z,9.399
2022-12-05T05:08:13.820Z,9.300
2022-12-05T05:09:13.148Z,9
2022-12-05T05:10:15.041Z,9.600
2022-12-05T05:11:13.864Z,9.199
2022-12-05T05:14:13.984Z,9.600
2022-12-05T05:15:14.083Z,9.199
2022-12-05T05:16:13.541Z,8.5
2022-12-05T05:17:14.629Z,8.399
2022-12-05T05:18:14.302Z,9.199
2022-12-05T05:19:13.611Z,9.300
2022-12-05T05:20:16.876Z,8.600
2022-12-05T05:21:13.755Z,8.800
2022-12-05T05:22:13.789Z,8.399
2022-12-05T05:23:13.313Z,8.5
2022-12-05T05:24:13.887Z,8.800
2022-12-05T05:25:14.043Z,9.399
2022-12-05T05:26:13.570Z,8.899
2022-12-05T05:27:14.001Z,8.699
2022-12-05T05:28:13.635Z,9.100
2022-12-05T05:29:14.307Z,8.100
2022-12-05T05:31:14.028Z,8.699
2022-12-05T05:33:14.545Z,8.300
2022-12-05T05:34:14.211Z,8.600
2022-12-05T05:35:14.188Z,9.100
2022-12-05T05:36:13.669Z,9.800
2022-12-05T05:37:14.534Z,8.100
2022-12-05T05:38:14.323Z,9.100
2022-12-05T05:40:13.051Z,8.699
2022-12-05T05:41:13.564Z,8.300
2022-12-05T05:42:14.512Z,8.5
2022-12-05T05:43:14.144Z,8.699
2022-12-05T05:44:13.186Z,9.100
2022-12-05T05:45:14.514Z,8.800
2022-12-05T05:46:14.049Z,9
2022-12-05T05:47:14.222Z,8.899
2022-12-05T05:48:13.961Z,8.100
2022-12-05T05:49:14.028Z,8.699
2022-12-05T05:50:20.901Z,8.100
2022-12-05T05:51:14.198Z,8.199
2022-12-05T05:52:13.646Z,9.199
2022-12-05T05:53:12.910Z,8
2022-12-05T05:54:13.702Z,8.300
2022-12-05T05:55:14.553Z,8.100
2022-12-05T05:56:17.222Z,8.199
2022-12-05T05:57:18.938Z,8.600
2022-12-05T05:58:14.010Z,8.100
2022-12-05T05:59:13.592Z,8.600
2022-12-05T06:00:14.534Z,8.5
2022-12-05T06:01:13.503Z,10.10
2022-12-05T06:02:14.356Z,8.699
2022-12-05T06:03:13.656Z,8.5
2022-12-05T06:04:14.565Z,8.899
2022-12-05T06:05:13.739Z,9.100
2022-12-05T06:06:13.958Z,9
2022-12-05T06:07:13.088Z,8.5
2022-12-05T06:08:13.032Z,8.699
2022-12-05T06:09:13.590Z,8.800
2022-12-05T06:10:14.218Z,8.899
2022-12-05T06:11:13.962Z,8.600
2022-12-05T06:12:14.470Z,8.300
2022-12-05T06:13:13.767Z,9.399
2022-12-05T06:14:13.615Z,7.599
2022-12-05T06:15:14.310Z,7.900
2022-12-05T06:16:14.110Z,6.900
2022-12-05T06:17:13.862Z,7.300
2022-12-05T06:18:14.667Z,6.599
2022-12-05T06:19:14.218Z,7.099
2022-12-05T06:20:13.486Z,6.699
2022-12-05T06:21:16.313Z,6.900
2022-12-05T06:22:13.557Z,7
2022-12-05T06:23:14.231Z,6.900
2022-12-05T06:24:14.274Z,6.5
2022-12-05T06:25:15.721Z,6.900
2022-12-05T06:27:13.506Z,7.199
2022-12-05T06:28:14.073Z,7.099
2022-12-05T06:29:13.648Z,7.900
2022-12-05T06:30:15.115Z,7.800
2022-12-05T06:31:13.745Z,7.5
2022-12-05T06:32:14.077Z,6.800
2022-12-05T06:33:14.506Z,7
2022-12-05T06:34:14.804Z,7.900
2022-12-05T06:35:13.922Z,7.099
2022-12-05T06:36:13.605Z,6.900
2022-12-05T06:37:14.700Z,6.800
2022-12-05T06:38:14.724Z,7
2022-12-05T06:39:15.307Z,7.199
2022-12-05T06:40:14.084Z,6.400
2022-12-05T06:41:13.992Z,6.5
2022-12-05T06:42:14.908Z,6.800
2022-12-05T06:43:18.609Z,7.099
2022-12-05T06:44:14.012Z,6.800
2022-12-05T06:45:19.192Z,7
2022-12-05T06:46:13.426Z,6.800
2022-12-05T06:47:19.578Z,6.699
2022-12-05T06:48:13.667Z,6.599
2022-12-05T06:49:19.509Z,6.699
2022-12-05T06:50:13.893Z,6.599
2022-12-05T06:53:13.362Z,5.900
2022-12-05T06:54:14.302Z,6.099
2022-12-05T06:55:19.760Z,5.699
2022-12-05T06:56:13.539Z,6.099
2022-12-05T06:57:14.575Z,6
2022-12-05T06:58:14.341Z,6.5
2022-12-05T06:59:22.155Z,6.400
2022-12-05T07:00:14.710Z,6.800
2022-12-05T07:01:27.630Z,6.099
2022-12-05T07:02:14.752Z,5.599
2022-12-05T07:03:13.371Z,6.599
2022-12-05T07:04:14.216Z,6
2022-12-05T07:05:15.041Z,5.599
2022-12-05T07:06:14.491Z,6.099
2022-12-05T07:07:28.030Z,5.900
2022-12-05T07:10:14.667Z,6.300
2022-12-05T07:11:14.538Z,5.900
2022-12-05T07:12:13.582Z,6.599
2022-12-05T07:13:28.459Z,5.699
2022-12-05T07:14:31.336Z,6.199
2022-12-05T07:15:28.779Z,6
2022-12-05T07:16:14.373Z,5.900
2022-12-05T07:19:13.771Z,6.599
2022-12-05T07:20:14.092Z,5.900
2022-12-05T07:21:13.575Z,6
2022-12-05T07:22:16.159Z,5.599
2022-12-05T07:24:13.387Z,5.900
2022-12-05T07:25:15.040Z,5.699
2022-12-05T07:26:13.490Z,6.300
2022-12-05T07:27:14.787Z,6.5
2022-12-05T07:28:14.441Z,5.599
2022-12-05T07:29:36.156Z,5.400
2022-12-05T07:30:15.011Z,5.599
2022-12-05T07:31:13.963Z,6
2022-12-05T07:33:14.022Z,6.199
2022-12-05T07:34:14.683Z,6.400
2022-12-05T07:35:14.849Z,6.300
2022-12-05T07:36:13.761Z,6.099
2022-12-05T07:39:14.152Z,6.5
2022-12-05T07:40:14.523Z,6.699
2022-12-05T07:41:13.788Z,6.900
2022-12-05T07:42:13.693Z,6.699
2022-12-05T07:43:14.731Z,6.599
2022-12-05T07:44:14.608Z,8.399
2022-12-05T07:45:13.806Z,6.400
2022-12-05T07:46:14.365Z,6.699
2022-12-05T07:47:13.905Z,6.5
2022-12-05T07:48:17.063Z,7.300
2022-12-05T07:49:14.355Z,7.199
2022-12-05T07:50:14.271Z,7.599
2022-12-05T07:51:14.277Z,8.399
2022-12-05T07:52:14.435Z,8.100
2022-12-05T07:53:14.675Z,7.800
2022-12-05T07:54:14.546Z,8.600
2022-12-05T07:55:14.457Z,9
2022-12-05T07:56:13.837Z,10
2022-12-05T07:57:14.459Z,10.39
2022-12-05T07:58:14.126Z,9.199
2022-12-05T07:59:14.053Z,9.5
2022-12-05T08:00:14.727Z,10
2022-12-05T08:01:13.412Z,9.399
2022-12-05T08:02:13.634Z,9.5
2022-12-05T08:03:13.706Z,8.600
2022-12-05T08:04:15.777Z,8.199
2022-12-05T08:05:13.535Z,8.5
2022-12-05T08:06:14.136Z,8
2022-12-05T08:07:13.810Z,8.899
2022-12-05T08:08:14.939Z,7.800
2022-12-05T08:09:14.128Z,8.100
2022-12-05T08:10:13.742Z,8.600
2022-12-05T08:11:13.837Z,7.900
2022-12-05T08:12:14.134Z,8.100
2022-12-05T08:13:13.372Z,7.400
2022-12-05T08:14:13.458Z,8.899
2022-12-05T08:15:13.808Z,7.099
2022-12-05T08:16:14.149Z,7.5
2022-12-05T08:17:13.897Z,9.100
2022-12-05T08:18:14.032Z,7.300
2022-12-05T08:19:13.359Z,7
2022-12-05T08:20:14.122Z,6.800
2022-12-05T08:21:13.610Z,7.599
2022-12-05T08:22:14.559Z,8.300
2022-12-05T08:23:13.511Z,7.099
2022-12-05T08:24:13.290Z,7.5
2022-12-05T08:25:12.820Z,6.699
2022-12-05T08:26:13.110Z,7.300
2022-12-05T08:27:14.035Z,6.699
2022-12-05T08:28:12.982Z,6.300
2022-12-05T08:29:14.016Z,6.699
2022-12-05T08:30:14.158Z,6.5
2022-12-05T08:31:13.386Z,7.099
2022-12-05T08:32:13.843Z,6.699
2022-12-05T08:33:13.080Z,7.199
2022-12-05T08:34:13.355Z,7
2022-12-05T08:35:13.566Z,7.099
2022-12-05T08:36:13.736Z,6.900
2022-12-05T08:37:13.908Z,7.199
2022-12-05T08:38:13.042Z,6.900
2022-12-05T08:39:13.589Z,7.099
2022-12-05T08:40:14.639Z,7.199
2022-12-05T08:41:13.622Z,7.099
2022-12-05T08:42:14.000Z,7.199
2022-12-05T08:43:12.635Z,7.300
2022-12-05T08:44:12.868Z,6.199
2022-12-05T08:45:14.583Z,6.800
2022-12-05T08:46:13.320Z,5.699
2022-12-05T08:47:13.506Z,6.800
2022-12-05T08:48:13.525Z,7
2022-12-05T08:51:13.481Z,6.5
2022-12-05T08:52:13.770Z,7.300
2022-12-05T08:53:13.726Z,6.599
2022-12-05T08:54:13.786Z,7.400
2022-12-05T08:55:14.254Z,7.099
2022-12-05T08:56:13.231Z,6.300
2022-12-05T08:57:13.436Z,7.199
2022-12-05T08:58:14.117Z,7.5
2022-12-05T08:59:13.445Z,6.699
2022-12-05T09:00:14.736Z,7.300
2022-12-05T09:01:13.497Z,7.699
2022-12-05T09:02:13.328Z,7.300
2022-12-05T09:03:14.011Z,7.199
2022-12-05T09:04:13.639Z,8.899
2022-12-05T09:06:13.830Z,8.100
2022-12-05T09:07:14.061Z,8.899
2022-12-05T09:08:18.544Z,7.599
2022-12-05T09:09:14.590Z,8.100
2022-12-05T09:10:19.431Z,9.100
2022-12-05T09:11:13.396Z,9.5
2022-12-05T09:13:13.833Z,10.60
2022-12-05T09:15:14.328Z,12.10
2022-12-05T09:16:18.409Z,12.89
2022-12-05T09:17:14.594Z,13.10
2022-12-05T09:18:13.650Z,14.19
2022-12-05T09:19:13.377Z,13.10
2022-12-05T09:20:13.166Z,12.30
2022-12-05T09:21:14.304Z,12.5
2022-12-05T09:22:23.604Z,12
2022-12-05T09:23:16.123Z,11.60
2022-12-05T09:24:12.978Z,11.19
2022-12-05T09:25:13.959Z,11.30
2022-12-05T09:26:27.690Z,11.89
2022-12-05T09:27:13.700Z,12.60
2022-12-05T09:28:13.864Z,12.39
2022-12-05T09:29:17.282Z,12.19
2022-12-05T09:30:28.337Z,13
2022-12-05T09:31:14.071Z,11.80
2022-12-05T09:32:14.329Z,12
2022-12-05T09:33:13.549Z,12.5
2022-12-05T09:34:14.476Z,12.80
2022-12-05T09:35:13.689Z,11.89
2022-12-05T09:36:27.764Z,12.39
2022-12-05T09:37:37.580Z,12.60
2022-12-05T09:38:13.577Z,10.89
2022-12-05T09:39:13.619Z,11.80
2022-12-05T09:40:27.654Z,11.5
2022-12-05T09:41:14.132Z,11
2022-12-05T09:42:13.948Z,10.39
2022-12-05T09:43:14.340Z,10.19
2022-12-05T09:44:12.855Z,11.19
2022-12-05T09:45:13.662Z,10.89
2022-12-05T09:46:13.949Z,10.69
2022-12-05T09:47:14.207Z,11.30
2022-12-05T09:48:32.342Z,11.19
2022-12-05T09:49:13.037Z,11
2022-12-05T09:50:13.756Z,10.80
2022-12-05T09:51:14.114Z,11.10
2022-12-05T09:52:13.363Z,10.60
2022-12-05T09:53:13.336Z,10.39
2022-12-05T09:54:13.208Z,10.10
2022-12-05T09:55:13.381Z,10.89
2022-12-05T09:56:13.409Z,10.5
2022-12-05T09:57:13.677Z,11.19
2022-12-05T09:58:14.009Z,12.30
2022-12-05T09:59:13.669Z,11
2022-12-05T10:00:37.247Z,12.10
2022-12-05T10:01:13.501Z,10.69
2022-12-05T10:02:13.825Z,11.5
2022-12-05T10:03:13.081Z,10.80
2022-12-05T10:04:14.334Z,10.60
2022-12-05T10:05:13.551Z,13
2022-12-05T10:06:14.164Z,10.89
2022-12-05T10:07:13.549Z,11.10
2022-12-05T10:08:13.325Z,11
2022-12-05T10:09:13.812Z,11.30
2022-12-05T10:10:19.630Z,10.89
2022-12-05T10:11:13.309Z,13.19
2022-12-05T10:12:13.496Z,11.69
2022-12-05T10:13:13.656Z,12.30
2022-12-05T10:14:13.707Z,11.80
2022-12-05T10:15:14.260Z,11
2022-12-05T10:16:13.566Z,11.89
2022-12-05T10:17:14.213Z,13.10
2022-12-05T10:18:13.306Z,12.30
2022-12-05T10:19:14.517Z,14
2022-12-05T10:20:13.538Z,14.19
2022-12-05T10:21:13.512Z,13.39
2022-12-05T10:22:18.756Z,12.5
2022-12-05T10:23:28.197Z,12.89
2022-12-05T10:24:13.523Z,12.39
2022-12-05T10:25:13.527Z,12.69
2022-12-05T10:26:13.406Z,11.80
2022-12-05T10:28:13.309Z,11.30
2022-12-05T10:29:14.485Z,11.39
2022-12-05T10:30:14.771Z,10.69
2022-12-05T10:31:13.719Z,10.10
2022-12-05T10:32:13.525Z,11
2022-12-05T10:33:13.947Z,10.39
2022-12-05T10:34:13.708Z,10.19
2022-12-05T10:35:13.579Z,10.80
2022-12-05T10:36:14.438Z,11.19
2022-12-05T10:37:13.773Z,11.10
2022-12-05T10:38:13.957Z,11.39
2022-12-05T10:39:15.037Z,12.80
2022-12-05T10:40:13.707Z,13
2022-12-05T10:41:13.843Z,13.39
2022-12-05T10:42:14.043Z,13.89
2022-12-05T10:43:13.124Z,14
2022-12-05T10:44:12.964Z,14.39
2022-12-05T10:45:13.887Z,13.19
2022-12-05T10:46:17.084Z,13.80
2022-12-05T10:47:13.869Z,13.19
2022-12-05T10:48:13.292Z,13.89
2022-12-05T10:49:13.347Z,14.80
2022-12-05T10:50:13.892Z,13.89
2022-12-05T10:51:14.882Z,12.89
2022-12-05T10:52:14.694Z,13.69
2022-12-05T10:53:14.008Z,14.69
2022-12-05T10:54:12.898Z,13.30
2022-12-05T10:55:14.621Z,13.89
2022-12-05T10:56:30.801Z,14.60
2022-12-05T10:57:13.357Z,15.19
2022-12-05T10:58:17.578Z,14.60
2022-12-05T10:59:13.474Z,13.89
2022-12-05T11:00:15.085Z,13.39
2022-12-05T11:01:13.626Z,14.80
2022-12-05T11:02:14.071Z,14.10
2022-12-05T11:03:12.788Z,13.19
2022-12-05T11:04:14.089Z,13.5
2022-12-05T11:07:13.296Z,14.5
2022-12-05T11:08:14.514Z,12.19
2022-12-05T11:09:14.344Z,14.19
2022-12-05T11:10:14.024Z,14.5
2022-12-05T11:11:14.602Z,14.19
2022-12-05T11:12:14.221Z,15.19
2022-12-05T11:13:13.735Z,13.89
2022-12-05T11:14:13.927Z,13.39
2022-12-05T11:15:13.963Z,14.89
2022-12-05T11:16:13.774Z,15.10
2022-12-05T11:17:14.441Z,14.19
2022-12-05T11:18:13.720Z,14.89
2022-12-05T11:19:13.097Z,14.69
2022-12-05T11:20:13.737Z,14.80
2022-12-05T11:21:13.227Z,15.30
2022-12-05T11:22:13.985Z,17.89
2022-12-05T11:23:12.873Z,16
2022-12-05T11:24:13.339Z,15
2022-12-05T11:25:14.456Z,16.10
2022-12-05T11:26:14.147Z,14.60
2022-12-05T11:27:14.313Z,15.89
2022-12-05T11:28:14.226Z,15.69
2022-12-05T11:29:14.328Z,15.39
2022-12-05T11:30:14.396Z,15.19
2022-12-05T11:31:13.882Z,17.10
2022-12-05T11:32:13.710Z,15.60
2022-12-05T11:33:18.498Z,15
2022-12-05T11:34:13.922Z,15.69
2022-12-05T11:35:19.304Z,16.29
2022-12-05T11:36:13.723Z,16.79
2022-12-05T11:37:18.658Z,15.69
2022-12-05T11:38:14.442Z,15.80
2022-12-05T11:39:18.467Z,18.29
2022-12-05T11:40:14.613Z,16.89
2022-12-05T11:41:19.183Z,17
2022-12-05T11:42:14.173Z,16.79
2022-12-05T11:44:13.958Z,16.89
2022-12-05T11:45:21.999Z,17.79
2022-12-05T11:46:13.398Z,15.10
2022-12-05T11:47:14.632Z,17.79
2022-12-05T11:48:14.015Z,17
2022-12-05T11:49:21.476Z,17.70
2022-12-05T11:50:14.726Z,16.89
2022-12-05T11:51:22.289Z,18
2022-12-05T11:52:14.672Z,16.70
2022-12-05T11:53:28.152Z,17.10
2022-12-05T11:54:14.403Z,17.5
2022-12-05T11:55:28.631Z,15.89
2022-12-05T11:56:15.225Z,17.29
2022-12-05T11:57:13.770Z,18.29
2022-12-05T11:58:14.334Z,18.5
2022-12-05T11:59:14.110Z,17.70
2022-12-05T12:00:14.854Z,17.79
2022-12-05T12:01:28.803Z,17.60
2022-12-05T12:02:14.094Z,17.10
2022-12-05T12:03:32.817Z,18
2022-12-05T12:04:14.163Z,18.29
2022-12-05T12:05:14.280Z,17.10
2022-12-05T12:06:14.544Z,18
2022-12-05T12:07:33.107Z,17.39
2022-12-05T12:08:14.304Z,18.29
2022-12-05T12:09:15.299Z,16
2022-12-05T12:10:15.328Z,16.89
2022-12-05T12:11:33.610Z,18.29
2022-12-05T12:12:14.954Z,19.60
2022-12-05T12:13:14.232Z,17.5
2022-12-05T12:14:14.346Z,18.79
2022-12-05T12:15:15.006Z,17.89
2022-12-05T12:16:14.189Z,17.29
2022-12-05T12:17:14.892Z,16
2022-12-05T12:18:14.057Z,17.20
2022-12-05T12:19:13.774Z,18.20
2022-12-05T12:20:13.652Z,18.39
2022-12-05T12:21:38.714Z,18.60
2022-12-05T12:22:14.438Z,19.39
2022-12-05T12:24:13.896Z,20.20
2022-12-05T12:26:14.405Z,20.5
2022-12-05T12:27:13.973Z,18.70
2022-12-05T12:28:13.525Z,21.60
2022-12-05T12:30:14.980Z,20.70
2022-12-05T12:32:13.186Z,21.79
2022-12-05T12:33:13.732Z,19.20
2022-12-05T12:34:13.993Z,18.89
2022-12-05T12:36:13.353Z,19.60
2022-12-05T12:37:13.724Z,17.5
2022-12-05T12:38:13.625Z,17
2022-12-05T12:40:14.318Z,17.60
2022-12-05T12:42:14.387Z,15.69
2022-12-05T12:43:25.468Z,14.80
2022-12-05T12:44:14.271Z,16.20
2022-12-05T12:45:13.790Z,14.39
2022-12-05T12:46:13.565Z,15.10
2022-12-05T12:47:14.230Z,14.89
2022-12-05T12:48:13.601Z,13.60
2022-12-05T12:49:13.765Z,14.10
2022-12-05T12:50:14.234Z,13.39
2022-12-05T12:51:13.771Z,13.60
2022-12-05T12:52:13.998Z,13.30
2022-12-05T12:53:14.296Z,14.5
2022-12-05T12:54:13.716Z,14.60
2022-12-05T12:55:13.658Z,13.80
2022-12-05T12:56:13.962Z,15.19
2022-12-05T12:57:16.096Z,14.39
2022-12-05T12:58:13.601Z,14.69
2022-12-05T12:59:13.515Z,14
2022-12-05T13:00:15.265Z,15.5
2022-12-05T13:02:14.147Z,14.10
2022-12-05T13:03:14.041Z,13.30
2022-12-05T13:04:13.802Z,14.39
2022-12-05T13:05:15.003Z,14.30
2022-12-05T13:06:13.511Z,13.80
2022-12-05T13:07:13.511Z,13.5
2022-12-05T13:08:13.550Z,15.10
2022-12-05T13:10:14.315Z,13.5
2022-12-05T13:12:13.846Z,13.10
2022-12-05T13:13:14.736Z,13.5
2022-12-05T13:14:13.494Z,14.39
2022-12-05T13:15:14.452Z,14.69
2022-12-05T13:16:13.402Z,15.30
2022-12-05T13:17:14.530Z,14.69
2022-12-05T13:18:13.450Z,14.19
2022-12-05T13:19:14.035Z,13.39
2022-12-05T13:20:13.989Z,13
2022-12-05T13:21:13.435Z,12.5
2022-12-05T13:22:14.065Z,12.39
2022-12-05T13:23:13.327Z,13.39
2022-12-05T13:24:13.395Z,13.30
2022-12-05T13:25:13.482Z,12.39
2022-12-05T13:27:14.350Z,13
2022-12-05T13:28:13.298Z,11.5
2022-12-05T13:29:13.539Z,11.10
2022-12-05T13:30:14.080Z,11.30
2022-12-05T13:33:14.232Z,11.5
2022-12-05T13:34:13.532Z,11.30
2022-12-05T13:35:14.942Z,10.89
2022-12-05T13:36:17.210Z,11.89
2022-12-05T13:37:14.672Z,10.89
2022-12-05T13:38:14.355Z,10.69
2022-12-05T13:40:13.475Z,9.5
2022-12-05T13:41:14.364Z,10.60
2022-12-05T13:42:13.973Z,11.10
2022-12-05T13:43:13.271Z,10.39
2022-12-05T13:44:13.673Z,10.5
2022-12-05T13:45:13.973Z,10.80
2022-12-05T13:46:13.736Z,10.39
2022-12-05T13:47:14.156Z,10.80
2022-12-05T13:48:13.843Z,9.899
2022-12-05T13:49:17.221Z,10.19
2022-12-05T13:50:14.675Z,10.39
2022-12-05T13:51:14.196Z,10.60
2022-12-05T13:52:13.766Z,11.30
2022-12-05T13:53:14.569Z,10.5
2022-12-05T13:54:14.254Z,10.89
2022-12-05T13:55:14.562Z,10.69
2022-12-05T13:56:14.261Z,11
2022-12-05T13:57:13.689Z,10.30
2022-12-05T13:58:18.259Z,10.80
2022-12-05T13:59:14.058Z,11.80